Tropical Cyclones
[Index]
Season 2020-2021 Tropical Cyclone 202104 Track Map
Season 2020-2021 Summaries (Operational Data): [AU] [SIO] [SPAC] [SH]
<<- Previous TC | 2020-2021 Season | Next TC ->>

click for intensity scale information  Lat/long Grid: Show Hide

 Date Labels: Show Hide

Operational Tropical Cyclone Data

Name: 202104
Number: 2104

07 Dec 2020 06:00 UTC to 13 Dec 2020 00:00 UTC

    date/time    lat    long     hPa   cat  kts
2020-12-07 06   13.1   169.4W   1010         15          
2020-12-07 12   13.1   169.8W   1010         15          
2020-12-07 18   13.0   170.3W   1007         20          
2020-12-08 00   12.9   171.5W   1008         20          
2020-12-08 06   13.0   172.5W   1004         20          
2020-12-08 12   13.0   173.5W   1004         20          
2020-12-08 18   12.7   174.2W   1008         20          
2020-12-09 00   12.6   174.4W   1004         20          
2020-12-09 06   12.2   175.2W   1006         20          
2020-12-09 12   12.4   176.0W   1006         20          
2020-12-09 18   12.6   177.9W   1007         20          
2020-12-10 00   12.6   178.3W   1007         20          
2020-12-10 06   12.5   178.7W   1004         20          
2020-12-10 12   12.4   179.1W   1002         25          
2020-12-10 18   12.3   179.6W   1002         25          
2020-12-11 00   12.4   179.6    1001         30          
2020-12-11 06   12.7   179.0    1000         30          
2020-12-11 12   13.1   178.7     997    1    35          
2020-12-11 18   14.3   177.8     998    1    35          
2020-12-12 00   14.8   176.3    1000    1    35          
2020-12-12 06   15.8   174.6    1000         30          
2020-12-12 12   15.7   173.1    1002         30          
2020-12-12 18   15.5   171.6    1003         25          
2020-12-13 00   15.1   170.9    1000         25          
Winds were reported as (or converted to) 10-min average.

Tropical cyclone tracks developed by Michael Bath using operational warnings and advisories and Google Maps.


Document: tropical_cyclone_202104.htm
Updated: 7 May 2021
[Australian Severe Weather index] [Copyright Notice] [Email Contacts] [Search This Site] [Privacy Policy]


Main Index Home Page Stock Weather Photos Extreme Storms Discussion Storm News and Storm Chasing Reports Tropical Cyclones / Hurricanes / Typhoons Weather Data and Links Wild Fires / Bushfires Weather Observation Techniques Weather Picture Catalogue Tornado Pictures and Reports Stock Video Footage and DVDs for sale